Latest Weather Observations for Alva Beach

IDQ60801

Issued at 2:35 pm EST Saturday 26 July 2014 (issued every 30 minutes, with the page automatically refreshed every 10 minutes)

About weather observations | Map of weather stations | Latest weather observations for QLD | Other Formats
Station Details ID: 033295 Name: ALVA BEACH Lat: -19.46 Lon: 147.48 Height: 7.5 m
Data from the previous 72 hours. | See also: Recent months at Alva Beach
Date/Time
EST
Temp
°C
App
Temp
°C
Dew
Point
Rel
Hum
%
Delta-T
°C
Wind Press
QNH
hPa
Press
MSL
hPa
Rain
since 9 am
mm
Dir
 
Spd
km/h
Gust
km/h
Spd
kts
Gust
kts
26/02:30pm 23.0 21.8 16.1 65 4.2 E 17 28 9 15 1020.8 - 0.0
26/02:00pm 23.2 22.7 16.0 64 4.3 ESE 13 20 7 11 1021.1 1021.1 0.0
26/01:30pm 23.6 22.3 15.9 62 4.7 ESE 17 28 9 15 1021.4 - 0.0
26/01:00pm 23.5 22.3 16.1 63 4.5 ESE 17 30 9 16 1022.0 1022.0 0.0
26/12:30pm 23.1 21.9 16.2 65 4.2 ESE 17 28 9 15 1022.3 - 0.0
26/12:00pm 23.2 21.7 16.3 65 4.2 ESE 19 32 10 17 1022.6 1022.6 0.0
26/11:30am 23.1 21.7 16.9 68 3.8 ESE 20 28 11 15 1023.2 - 0.0
26/11:00am 23.1 22.1 16.6 67 4.0 ESE 17 26 9 14 1023.5 1023.5 0.0
26/10:30am 23.4 22.8 16.7 66 4.1 ESE 15 24 8 13 1023.7 - 0.0
26/10:00am 22.5 21.3 17.0 71 3.4 SE 19 26 10 14 1024.0 1024.0 0.0
26/09:30am 22.5 21.6 16.8 70 3.5 ESE 17 28 9 15 1023.9 - 0.0
26/09:00am 22.3 21.7 16.6 70 3.5 ESE 15 22 8 12 1023.7 1023.7 0.0
26/08:30am 21.5 20.7 17.1 76 2.7 SE 17 24 9 13 1023.7 - 0.0
26/08:00am 20.9 20.4 16.9 78 2.4 SE 15 24 8 13 1023.4 1023.4 0.0
26/07:30am 20.5 19.2 16.9 80 2.2 SE 19 26 10 14 1023.1 - 0.0
26/07:00am 19.8 19.3 17.0 84 1.7 ESE 15 24 8 13 1022.8 1022.8 0.0
26/06:30am 19.7 19.7 17.1 85 1.6 ESE 13 20 7 11 1022.6 - 0.0
26/06:00am 19.9 18.8 17.3 85 1.6 E 19 26 10 14 1022.2 1022.2 0.0
26/05:30am 19.9 19.9 17.1 84 1.7 ESE 13 24 7 13 1022.2 - 0.0
26/05:00am 20.0 19.5 16.8 82 1.9 ESE 15 22 8 12 1022.1 1022.1 0.0
26/04:30am 20.0 18.7 16.8 82 1.9 SE 19 26 10 14 1022.0 - 0.0
26/04:00am 20.0 19.8 16.8 82 1.9 ESE 13 24 7 13 1021.8 1021.8 0.0
26/03:30am 20.1 20.1 17.3 84 1.7 ESE 13 22 7 12 1021.7 - 0.0
26/03:00am 20.1 20.1 17.3 84 1.7 ESE 13 20 7 11 1022.0 1022.0 0.0
26/02:30am 20.1 19.9 17.5 85 1.6 ESE 15 24 8 13 1021.9 - 0.0
26/02:00am 20.3 20.1 17.7 85 1.6 SE 15 22 8 12 1021.9 1021.9 0.0
26/01:30am 20.6 20.8 17.6 83 1.8 ESE 13 24 7 13 1022.2 - 0.0
26/01:00am 20.5 20.1 17.1 81 2.1 ESE 15 28 8 15 1022.7 1022.7 0.0
26/12:30am 20.7 20.2 17.7 83 1.8 ESE 17 26 9 14 1023.1 - 0.0
26/12:00am 21.1 19.8 17.3 79 2.3 ESE 20 32 11 17 1023.2 1023.2 0.0
 
Date/Time
EST
Temp
°C
App
Temp
°C
Dew
Point
Rel
Hum
%
Delta-T
°C
Wind Press
QNH
hPa
Press
MSL
hPa
Rain
since 9 am
mm
Dir
 
Spd
km/h
Gust
km/h
Spd
kts
Gust
kts
25/11:30pm 21.2 20.0 17.4 79 2.3 E 20 30 11 16 1023.2 - 0.0
25/11:00pm 21.2 19.5 17.2 78 2.4 E 22 32 12 17 1023.3 1023.3 0.0
25/10:30pm 21.3 18.8 17.1 77 2.6 E 26 33 14 18 1023.4 - 0.0
25/10:00pm 21.4 19.3 17.2 77 2.6 E 24 35 13 19 1023.3 1023.3 0.0
25/09:30pm 21.4 18.9 17.2 77 2.6 E 26 37 14 20 1023.2 - 0.0
25/09:00pm 21.6 18.8 17.4 77 2.6 E 28 37 15 20 1022.9 1022.9 0.0
25/08:30pm 21.5 18.9 16.9 75 2.8 E 26 37 14 20 1022.7 - 0.0
25/08:00pm 21.5 19.5 17.5 78 2.5 E 24 33 13 18 1022.5 1022.5 0.0
25/07:30pm 21.5 19.5 17.5 78 2.5 E 24 33 13 18 1022.2 - 0.0
25/07:00pm 21.5 18.9 16.9 75 2.8 E 26 37 14 20 1021.9 1021.9 0.0
25/06:30pm 21.4 19.2 17.0 76 2.7 E 24 33 13 18 1021.5 - 0.0
25/06:00pm 21.6 19.6 17.4 77 2.6 E 24 35 13 19 1021.1 1021.1 0.0
25/05:30pm 21.6 19.5 17.2 76 2.7 E 24 33 13 18 1020.8 - 0.0
25/05:00pm 21.9 20.0 16.8 73 3.1 E 22 33 12 18 1020.5 1020.5 0.0
25/04:30pm 22.3 20.7 16.6 70 3.5 E 20 28 11 15 1020.3 - 0.0
25/04:00pm 22.9 21.5 17.1 70 3.6 E 20 28 11 15 1020.2 1020.2 0.0
25/03:30pm 23.1 22.2 16.9 68 3.8 E 17 26 9 14 1019.9 - 0.0
25/03:00pm 23.3 21.9 16.6 66 4.1 ESE 19 24 10 13 1019.7 1019.7 0.0
25/02:30pm 23.4 21.9 16.7 66 4.1 E 20 30 11 16 1019.9 - 0.0
25/02:00pm 23.8 22.3 16.8 65 4.3 ESE 20 30 11 16 1020.2 1020.2 0.0
25/01:30pm 23.9 22.5 16.9 65 4.3 E 20 32 11 17 1020.6 - 0.0
25/01:00pm 23.3 20.7 16.8 67 4.0 E 26 33 14 18 1020.8 1020.8 0.0
25/12:30pm 24.4 23.2 17.4 65 4.4 ESE 20 32 11 17 1021.2 - 0.0
25/12:00pm 24.2 23.5 17.4 65 4.2 ESE 17 28 9 15 1021.6 1021.6 0.0
25/11:30am 23.8 22.8 17.5 68 3.9 ESE 19 32 10 17 1022.0 - 0.0
25/11:00am 23.5 23.0 17.7 70 3.6 ESE 17 32 9 17 1022.3 1022.3 0.0
25/10:30am 22.8 21.0 17.0 70 3.6 ESE 22 33 12 18 1022.3 - 0.0
25/10:00am 23.2 22.8 18.1 73 3.2 ESE 17 28 9 15 1022.4 1022.4 0.0
25/09:30am 22.4 21.6 17.1 72 3.3 ESE 17 24 9 13 1022.4 - 0.0
25/09:00am 21.6 20.4 17.6 78 2.5 SE 20 28 11 15 1022.2 1022.2 1.6
25/08:30am 21.5 20.9 17.5 78 2.5 ESE 17 28 9 15 1021.8 - 1.6
25/08:00am 21.1 20.3 17.1 78 2.4 ESE 17 26 9 14 1021.3 1021.3 1.6
25/07:30am 21.1 19.1 17.5 80 2.2 E 24 33 13 18 1020.9 - 1.6
25/07:00am 20.3 19.4 18.1 87 1.4 E 20 30 11 16 1020.5 1020.5 1.6
25/06:30am 20.2 19.3 18.1 88 1.3 E 20 30 11 16 1020.1 - 1.6
25/06:00am 20.3 18.9 17.9 86 1.5 E 22 32 12 17 1019.7 1019.7 1.6
25/05:30am 20.4 18.7 18.0 86 1.5 E 24 35 13 19 1019.4 - 1.6
25/05:00am 20.4 19.7 18.3 88 1.3 ESE 19 26 10 14 1019.2 1019.2 1.6
25/04:30am 20.5 19.3 18.3 87 1.4 ESE 22 32 12 17 1019.0 - 1.6
25/04:00am 20.5 18.6 17.7 84 1.7 SE 24 33 13 18 1018.9 1018.9 1.6
25/03:30am 20.5 18.9 17.5 83 1.8 SE 22 33 12 18 1019.0 - 1.6
25/03:00am 20.5 19.6 18.1 86 1.5 SE 20 32 11 17 1019.0 1019.0 1.6
25/02:30am 20.3 19.3 17.9 86 1.5 ESE 20 32 11 17 1019.1 - 1.6
25/02:00am 20.2 19.8 18.1 88 1.3 ESE 17 26 9 14 1019.2 1019.2 1.6
25/01:30am 20.1 19.9 18.4 90 1.1 ESE 17 26 9 14 1019.4 - 1.6
25/01:00am 20.2 19.5 18.3 89 1.2 ESE 19 32 10 17 1019.6 1019.6 1.6
25/12:30am 20.4 20.6 18.5 89 1.2 ESE 15 22 8 12 1019.9 - 1.6
25/12:00am 20.2 20.2 18.1 88 1.3 ESE 15 24 8 13 1020.0 1020.0 1.6
 
Date/Time
EST
Temp
°C
App
Temp
°C
Dew
Point
Rel
Hum
%
Delta-T
°C
Wind Press
QNH
hPa
Press
MSL
hPa
Rain
since 9 am
mm
Dir
 
Spd
km/h
Gust
km/h
Spd
kts
Gust
kts
24/11:30pm 20.6 20.4 18.4 87 1.4 ESE 17 26 9 14 1020.1 - 1.6
24/11:00pm 21.1 20.2 18.3 84 1.7 ESE 20 33 11 18 1020.2 1020.2 1.6
24/10:30pm 21.0 19.5 17.8 82 2.0 E 22 32 12 17 1020.3 - 1.6
24/10:00pm 21.1 20.6 18.7 86 1.5 E 19 26 10 14 1020.2 1020.2 1.6
24/09:30pm 20.8 19.8 18.0 84 1.7 E 20 28 11 15 1020.0 - 1.6
24/09:00pm 20.6 20.0 18.5 88 1.3 E 19 28 10 15 1019.8 1019.8 1.6
24/08:30pm 20.0 22.4 18.7 92 0.8 SE 4 7 2 4 1019.6 - 1.6
24/08:00pm 19.9 22.2 18.6 92 0.8 SE 4 7 2 4 1019.5 1019.5 1.6
24/07:30pm 19.8 19.5 18.3 91 0.9 ENE 17 28 9 15 1019.4 - 1.4
24/07:00pm 20.6 20.4 17.6 83 1.8 ESE 15 26 8 14 1018.9 1018.9 0.0
24/06:30pm 20.9 20.7 17.7 82 2.0 ESE 15 24 8 13 1018.5 - 0.0
24/06:00pm 21.2 21.0 17.6 80 2.2 ESE 15 24 8 13 1017.9 1017.9 0.0
24/05:30pm 21.2 20.8 17.2 78 2.4 ESE 15 26 8 14 1017.6 - 0.0
24/05:00pm 21.2 20.1 17.4 79 2.3 ESE 19 32 10 17 1017.3 1017.3 0.0
24/04:30pm 22.6 22.3 17.3 72 3.3 ESE 15 24 8 13 1017.2 - 0.0
24/04:00pm 22.9 22.5 18.0 74 3.1 ESE 17 26 9 14 1017.0 1017.0 0.0
24/03:30pm 23.3 22.9 18.0 72 3.3 ESE 17 26 9 14 1017.0 - 0.0
24/03:00pm 23.6 23.5 17.8 70 3.6 ESE 15 28 8 15 1017.0 1017.0 0.0
24/02:30pm 22.8 22.7 17.9 74 3.1 ESE 15 28 8 15 1017.1 - 0.0
24/02:00pm 22.7 22.7 18.0 75 2.9 ESE 15 26 8 14 1017.0 1017.0 0.0
24/01:30pm 21.1 22.2 18.1 83 1.9 SE 9 19 5 10 1017.2 - 0.0
24/01:00pm 20.6 20.4 18.4 87 1.4 E 17 28 9 15 1017.5 1017.5 0.0
24/12:30pm 21.0 21.3 17.8 82 2.0 ESE 13 22 7 12 1017.9 - 0.0
24/12:00pm 23.5 23.4 17.0 67 4.0 ESE 13 24 7 13 1018.2 1018.2 0.0
24/11:30am 22.8 22.9 17.5 72 3.3 ESE 13 22 7 12 1018.8 - 0.0
24/11:00am 20.8 20.6 17.6 82 2.0 ESE 15 26 8 14 1019.0 1019.0 0.0
24/10:30am 21.2 20.6 17.6 80 2.2 ESE 17 28 9 15 1019.1 - 0.0
24/10:00am 21.3 20.0 16.7 75 2.8 ESE 19 28 10 15 1019.0 1019.0 0.0
24/09:30am 20.9 20.0 16.9 78 2.4 SE 17 24 9 13 1018.8 - 0.0
24/09:00am 21.1 21.2 16.5 75 2.8 SE 11 19 6 10 1018.7 1018.7 0.0
24/08:30am 19.4 19.6 15.7 79 2.2 SSE 9 19 5 10 1018.6 - 0.0
24/08:00am 16.8 16.8 15.3 91 0.9 S 9 13 5 7 1018.4 1018.4 0.0
24/07:30am 15.6 15.4 14.6 94 0.6 S 9 13 5 7 1018.4 - 0.0
24/07:00am 14.7 14.1 13.6 93 0.6 S 9 13 5 7 1018.0 1018.0 0.0
24/06:30am 14.5 13.5 13.4 93 0.6 S 11 15 6 8 1017.7 - 0.0
24/06:00am 14.1 13.3 13.0 93 0.6 SSW 9 13 5 7 1017.6 1017.6 0.0
24/05:30am 14.3 13.6 13.2 93 0.6 SSW 9 13 5 7 1017.1 - 0.0
24/05:00am 14.5 13.9 13.4 93 0.6 SSW 9 13 5 7 1016.9 1016.9 0.0
24/04:30am 14.3 13.6 13.2 93 0.6 SSW 9 13 5 7 1016.9 - 0.0
24/04:00am 14.0 13.1 12.7 92 0.7 SSW 9 11 5 6 1016.9 1016.9 0.0
24/03:30am 14.3 13.8 12.7 90 0.9 SSW 7 9 4 5 1017.0 - 0.0
24/03:00am 14.9 14.0 12.6 86 1.3 SSW 9 13 5 7 1017.4 1017.4 0.0
24/02:30am 15.8 15.4 12.9 83 1.6 SSW 7 11 4 6 1017.4 - 0.0
24/02:00am 16.2 15.2 13.3 83 1.6 S 11 15 6 8 1017.8 1017.8 0.0
24/01:30am 16.4 16.1 13.3 82 1.7 S 7 11 4 6 1017.9 - 0.0
24/01:00am 17.8 17.7 13.9 78 2.2 SSW 7 13 4 7 1018.1 1018.1 0.0
24/12:30am 19.8 20.1 16.1 79 2.2 SE 9 15 5 8 1018.2 - 0.0
24/12:00am 20.3 19.5 16.1 77 2.5 E 15 24 8 13 1018.3 1018.3 0.0
 
Date/Time
EST
Temp
°C
App
Temp
°C
Dew
Point
Rel
Hum
%
Delta-T
°C
Wind Press
QNH
hPa
Press
MSL
hPa
Rain
since 9 am
mm
Dir
 
Spd
km/h
Gust
km/h
Spd
kts
Gust
kts
23/11:30pm 20.5 18.6 15.7 74 2.9 E 20 26 11 14 1018.3 - 0.0
23/11:00pm 20.5 18.6 15.7 74 2.9 E 20 30 11 16 1018.5 1018.5 0.0
23/10:30pm 20.6 18.3 15.8 74 2.9 E 22 30 12 16 1018.6 - 0.0
23/10:00pm 20.5 18.2 15.7 74 2.9 E 22 30 12 16 1018.6 1018.6 0.0
23/09:30pm 20.6 18.0 15.8 74 2.9 E 24 32 13 17 1018.6 - 0.0
23/09:00pm 20.6 18.0 15.8 74 2.9 E 24 33 13 18 1018.3 1018.3 0.0
23/08:30pm 20.7 17.9 16.3 76 2.6 E 26 35 14 19 1018.2 - 0.0
23/08:00pm 20.8 18.2 16.0 74 2.9 E 24 33 13 18 1017.9 1017.9 0.0
23/07:30pm 20.8 17.5 15.1 70 3.4 E 26 33 14 18 1017.7 - 0.0
23/07:00pm 20.8 17.5 15.1 70 3.4 E 26 33 14 18 1017.4 1017.4 0.0
23/06:30pm 20.8 16.9 14.5 67 3.7 ENE 28 37 15 20 1017.2 - 0.0
23/06:00pm 20.9 17.1 14.8 68 3.6 ENE 28 37 15 20 1016.8 1016.8 0.0
23/05:30pm 21.0 17.1 14.4 66 3.9 ENE 28 35 15 19 1016.6 - 0.0
23/05:00pm 21.2 17.0 13.4 61 4.5 E 28 35 15 19 1016.2 1016.2 0.0
23/04:30pm 21.9 18.8 14.5 63 4.3 E 24 32 13 17 1016.0 - 0.0
23/04:00pm 22.1 18.4 14.0 60 4.7 E 26 35 14 19 1015.8 1015.8 0.0
23/03:30pm 22.3 18.8 13.4 57 5.1 E 24 33 13 18 1015.7 - 0.0
23/03:00pm 22.5 19.1 13.6 57 5.2 E 24 33 13 18 1015.6 1015.6 0.0

Other Formats:

Comma delimited format used in spreadsheet applications
http://www.bom.gov.au/fwo/IDQ60801/IDQ60801.95296.axf

JavaScript Object Notation format (JSON) in row-major order
http://www.bom.gov.au/fwo/IDQ60801/IDQ60801.95296.json